Time;durP1;ratioP1;P1;durP2;ratioP2;P2;SDS_P1;SDS_P2;PMS_P1;PMS_P2;Temp;Humidity;BMP_temperature;BMP_pressure;BME280_temperature;BME280_humidity;BME280_pressure;Samples;Min_cycle;Max_cycle;Signal;HPM_P1;HPM_P2
2023/12/31 00:03:15;;;;;;;;;;;;;;;17.48;44.84;98780.47;10324589;28;1012;-74
2023/12/31 00:08:11;;;;;;;;;;;;;;;17.48;44.88;98764.66;10325361;28;1890;-74
2023/12/31 00:13:07;;;;;;;;;;;;;;;17.48;44.63;98762.84;10324715;28;802;-74
2023/12/31 00:18:03;;;;;;;;;;;;;;;17.49;44.86;98758.44;10324737;28;952;-74
2023/12/31 00:22:59;;;;;;;;;;;;;;;17.48;44.84;98743.56;10328576;28;834;-74
2023/12/31 00:27:54;;;;;;;;;;;;;;;17.45;44.93;98741.97;10332168;28;1894;-74
2023/12/31 00:32:50;;;;;;;;;;;;;;;17.44;44.86;98739.41;10332031;28;875;-74
2023/12/31 00:37:46;;;;;;;;;;;;;;;17.42;45.05;98722.84;10332373;28;1077;-74
2023/12/31 00:42:42;;;;;;;;;;;;;;;17.40;44.98;98704.50;10331659;28;784;-74
2023/12/31 00:47:38;;;;;;;;;;;;;;;17.41;44.88;98698.28;10331633;28;1977;-74
2023/12/31 00:52:34;;;;;;;;;;;;;;;17.40;44.94;98704.50;10330680;28;775;-74
2023/12/31 00:57:30;;;;;;;;;;;;;;;17.39;44.99;98696.69;10331937;28;849;-74
2023/12/31 01:02:27;;;;;;;;;;;;;;;17.37;44.95;98685.38;10330982;28;814;-74
2023/12/31 01:07:23;;;;;;;;;;;;;;;17.36;45.08;98683.69;10330668;28;1945;-74
2023/12/31 01:12:18;;;;;;;;;;;;;;;17.36;44.86;98687.16;10330621;28;889;-74
2023/12/31 01:17:14;;;;;;;;;;;;;;;17.35;44.95;98663.56;10330437;28;825;-74
2023/12/31 01:22:10;;;;;;;;;;;;;;;17.34;45.13;98662.69;10331027;28;857;-74
2023/12/31 01:27:06;;;;;;;;;;;;;;;17.32;45.10;98654.06;10330358;28;1905;-74
2023/12/31 01:32:02;;;;;;;;;;;;;;;17.31;45.00;98650.56;10330168;28;849;-74
2023/12/31 01:36:58;;;;;;;;;;;;;;;17.33;44.88;98645.22;10329193;28;1417;-74
2023/12/31 01:41:54;;;;;;;;;;;;;;;17.31;44.97;98642.66;10330092;28;879;-74
2023/12/31 01:46:50;;;;;;;;;;;;;;;17.31;44.98;98628.66;10329997;28;1910;-74
2023/12/31 01:51:46;;;;;;;;;;;;;;;17.28;44.86;98619.13;10329686;28;943;-74
2023/12/31 01:56:42;;;;;;;;;;;;;;;17.28;45.06;98598.06;10328870;28;777;-74
2023/12/31 02:01:37;;;;;;;;;;;;;;;17.30;45.02;98590.94;10328883;28;878;-74
2023/12/31 02:06:33;;;;;;;;;;;;;;;17.29;45.02;98576.06;10327899;28;1894;-74
2023/12/31 02:11:29;;;;;;;;;;;;;;;17.27;45.09;98559.50;10327697;28;909;-74
2023/12/31 02:16:25;;;;;;;;;;;;;;;17.26;44.97;98549.06;10327451;28;846;-74
2023/12/31 02:21:21;;;;;;;;;;;;;;;17.28;44.87;98547.19;10328427;28;806;-74
2023/12/31 02:26:17;;;;;;;;;;;;;;;17.27;44.99;98535.81;10328516;28;1953;-74
2023/12/31 02:31:13;;;;;;;;;;;;;;;17.28;44.99;98531.38;10328116;28;801;-74
2023/12/31 02:36:09;;;;;;;;;;;;;;;17.25;45.08;98529.78;10327685;28;1339;-74
2023/12/31 02:41:04;;;;;;;;;;;;;;;17.24;44.91;98528.09;10327666;28;936;-74
2023/12/31 02:46:01;;;;;;;;;;;;;;;17.22;45.06;98524.72;10325506;28;1973;-74
2023/12/31 02:50:57;;;;;;;;;;;;;;;17.23;44.92;98520.28;10327500;28;1667;-74
2023/12/31 02:55:53;;;;;;;;;;;;;;;17.22;44.91;98516.81;10327137;28;995;-74
2023/12/31 03:00:48;;;;;;;;;;;;;;;17.22;44.82;98510.69;10326363;28;805;-74
2023/12/31 03:05:44;;;;;;;;;;;;;;;17.20;45.06;98504.69;10326772;28;1959;-74
2023/12/31 03:10:40;;;;;;;;;;;;;;;17.16;44.92;98493.50;10326011;28;919;-74
2023/12/31 03:15:36;;;;;;;;;;;;;;;17.13;45.06;98485.75;10325889;28;925;-74
2023/12/31 03:20:32;;;;;;;;;;;;;;;17.11;45.23;98474.50;10325881;28;778;-74
2023/12/31 03:25:28;;;;;;;;;;;;;;;17.09;45.37;98469.31;10325649;28;1973;-74
2023/12/31 03:30:24;;;;;;;;;;;;;;;17.06;45.22;98456.34;10325037;28;917;-74
2023/12/31 03:35:20;;;;;;;;;;;;;;;17.04;45.41;98455.56;10325568;28;964;-74
2023/12/31 03:40:15;;;;;;;;;;;;;;;17.02;45.16;98453.97;10326594;28;1207;-74
2023/12/31 03:45:11;;;;;;;;;;;;;;;17.02;45.38;98431.13;10325878;28;799;-74
2023/12/31 03:50:07;;;;;;;;;;;;;;;17.01;45.38;98436.50;10325851;28;1922;-74
2023/12/31 03:55:03;;;;;;;;;;;;;;;17.03;45.39;98439.91;10325428;28;985;-74
2023/12/31 03:59:59;;;;;;;;;;;;;;;17.06;45.17;98427.38;10333944;28;853;-74
2023/12/31 04:04:55;;;;;;;;;;;;;;;17.10;45.10;98420.13;10333178;28;941;-74
2023/12/31 04:09:51;;;;;;;;;;;;;;;17.13;45.17;98411.19;10332376;28;1894;-74
2023/12/31 04:14:47;;;;;;;;;;;;;;;17.14;45.04;98405.84;10332747;28;897;-74
2023/12/31 04:19:43;;;;;;;;;;;;;;;17.13;45.16;98401.50;10332013;28;909;-74
2023/12/31 04:24:39;;;;;;;;;;;;;;;17.14;45.05;98387.41;10332419;28;953;-74
2023/12/31 04:29:35;;;;;;;;;;;;;;;17.16;45.12;98374.13;10332761;28;1897;-74
2023/12/31 04:34:30;;;;;;;;;;;;;;;17.19;44.94;98368.72;10332004;28;1015;-74
2023/12/31 04:39:26;;;;;;;;;;;;;;;17.18;45.19;98348.56;10331119;28;1488;-74
2023/12/31 04:44:22;;;;;;;;;;;;;;;17.20;45.18;98330.88;10331720;28;944;-74
2023/12/31 04:49:18;;;;;;;;;;;;;;;17.25;44.83;98315.66;10331408;28;1973;-74
2023/12/31 04:54:14;;;;;;;;;;;;;;;17.29;44.74;98299.56;10331337;28;777;-74
2023/12/31 04:59:10;;;;;;;;;;;;;;;17.35;44.78;98294.84;10331753;28;879;-73
2023/12/31 05:04:06;;;;;;;;;;;;;;;17.39;44.71;98275.25;10332076;28;834;-74
2023/12/31 05:09:03;;;;;;;;;;;;;;;17.39;44.60;98268.19;10331005;28;1951;-74
2023/12/31 05:13:59;;;;;;;;;;;;;;;17.44;44.72;98265.25;10331303;28;854;-74
2023/12/31 05:18:55;;;;;;;;;;;;;;;17.48;44.55;98243.06;10329741;28;849;-74
2023/12/31 05:23:51;;;;;;;;;;;;;;;17.48;44.59;98235.16;10330367;28;932;-74
2023/12/31 05:28:47;;;;;;;;;;;;;;;17.51;44.52;98232.31;10329884;28;1964;-74
2023/12/31 05:33:43;;;;;;;;;;;;;;;17.56;44.43;98221.47;10329942;28;868;-74
2023/12/31 05:38:38;;;;;;;;;;;;;;;17.54;44.49;98221.56;10329055;28;1573;-74
2023/12/31 05:43:34;;;;;;;;;;;;;;;17.56;44.43;98209.13;10330586;28;783;-74
2023/12/31 05:48:30;;;;;;;;;;;;;;;17.58;44.43;98187.94;10329193;28;1981;-74
2023/12/31 05:53:26;;;;;;;;;;;;;;;17.56;44.50;98172.25;10329144;28;872;-71
2023/12/31 05:58:22;;;;;;;;;;;;;;;17.59;44.60;98176.47;10329465;28;716;-74
2023/12/31 06:03:18;;;;;;;;;;;;;;;17.63;44.50;98172.66;10328019;28;945;-74
2023/12/31 06:08:14;;;;;;;;;;;;;;;17.66;44.58;98170.69;10328980;28;1898;-73
2023/12/31 06:13:10;;;;;;;;;;;;;;;17.64;44.64;98148.88;10328859;28;930;-72
2023/12/31 06:18:06;;;;;;;;;;;;;;;17.65;44.60;98144.44;10327921;28;821;-74
2023/12/31 06:23:02;;;;;;;;;;;;;;;17.69;44.60;98136.22;10327903;28;869;-74
2023/12/31 06:27:58;;;;;;;;;;;;;;;17.65;44.70;98140.00;10327526;28;1947;-74
2023/12/31 06:32:54;;;;;;;;;;;;;;;17.62;44.71;98129.66;10328124;28;847;-74
2023/12/31 06:37:50;;;;;;;;;;;;;;;17.67;44.50;98130.19;10327094;28;1217;-73
2023/12/31 06:42:46;;;;;;;;;;;;;;;17.67;44.76;98130.19;10326512;28;949;-74
2023/12/31 06:47:41;;;;;;;;;;;;;;;17.68;44.86;98113.47;10327410;28;1918;-76
2023/12/31 06:52:37;;;;;;;;;;;;;;;17.71;44.73;98121.16;10326097;28;1261;-75
2023/12/31 06:57:33;;;;;;;;;;;;;;;17.69;45.03;98117.78;10326536;28;770;-76
2023/12/31 07:02:30;;;;;;;;;;;;;;;17.69;45.05;98117.78;10326965;28;837;-75
2023/12/31 07:07:26;;;;;;;;;;;;;;;17.71;44.70;98107.09;10326160;28;1965;-75
2023/12/31 07:12:21;;;;;;;;;;;;;;;17.72;44.76;98101.75;10326066;28;928;-77
2023/12/31 07:17:17;;;;;;;;;;;;;;;17.76;44.79;98099.72;10326110;28;798;-74
2023/12/31 07:22:14;;;;;;;;;;;;;;;17.80;44.86;98100.41;10326700;28;849;-74
2023/12/31 07:27:10;;;;;;;;;;;;;;;17.76;44.92;98078.66;10326251;28;1951;-75
2023/12/31 07:32:05;;;;;;;;;;;;;;;17.81;44.87;98081.00;10325818;28;845;-75
2023/12/31 07:37:02;;;;;;;;;;;;;;;17.81;44.75;98079.19;10325555;28;1891;-78
2023/12/31 07:41:58;;;;;;;;;;;;;;;17.79;44.96;98078.50;10326025;28;853;-76
2023/12/31 07:46:54;;;;;;;;;;;;;;;17.80;44.84;98068.78;10326177;28;1918;-75
2023/12/31 07:51:50;;;;;;;;;;;;;;;17.85;44.78;98061.41;10325212;28;909;-75
2023/12/31 07:56:46;;;;;;;;;;;;;;;17.82;45.02;98057.19;10325658;28;931;-74
2023/12/31 08:01:42;;;;;;;;;;;;;;;17.82;45.31;98053.72;10325557;28;893;-74
2023/12/31 08:06:38;;;;;;;;;;;;;;;17.83;45.10;98044.84;10324758;28;1894;-74
2023/12/31 08:11:34;;;;;;;;;;;;;;;17.77;45.45;98026.81;10324777;28;805;-79
2023/12/31 08:16:30;;;;;;;;;;;;;;;17.73;45.22;98032.28;10324728;28;814;-74
2023/12/31 08:21:27;;;;;;;;;;;;;;;17.72;45.23;98025.31;10324932;28;894;-74
2023/12/31 08:26:25;;;;;;;;;;;;;;;17.68;45.18;98026.50;10324439;28;1894;-74
2023/12/31 08:31:21;;;;;;;;;;;;;;;17.75;45.07;98021.63;10324445;28;926;-75
2023/12/31 08:36:17;;;;;;;;;;;;;;;17.78;44.96;98017.94;10324307;28;1392;-75
2023/12/31 08:41:13;;;;;;;;;;;;;;;17.78;45.01;98000.34;10324219;28;960;-75
2023/12/31 08:46:10;;;;;;;;;;;;;;;17.77;45.06;97992.56;10331763;28;1977;-75
2023/12/31 08:51:06;;;;;;;;;;;;;;;17.80;45.06;97990.56;10332069;28;882;-75
2023/12/31 08:56:01;;;;;;;;;;;;;;;17.79;44.90;97977.44;10330721;28;846;-75
2023/12/31 09:00:57;;;;;;;;;;;;;;;17.78;44.98;97983.69;10331695;28;798;-75
2023/12/31 09:05:53;;;;;;;;;;;;;;;17.80;44.90;97990.56;10330977;28;1949;-75
2023/12/31 09:10:49;;;;;;;;;;;;;;;17.83;44.61;98015.84;10331347;28;890;-76
2023/12/31 09:15:45;;;;;;;;;;;;;;;17.81;44.76;98009.84;10330519;28;894;-76
2023/12/31 09:20:41;;;;;;;;;;;;;;;17.85;44.82;98020.06;10330354;28;881;-75
2023/12/31 09:25:37;;;;;;;;;;;;;;;17.85;44.60;98014.78;10330764;28;1947;-73
2023/12/31 09:30:33;;;;;;;;;;;;;;;17.81;44.95;98017.75;10330400;28;989;-74
2023/12/31 09:35:29;;;;;;;;;;;;;;;17.85;44.80;98003.41;10330486;28;1165;-76
2023/12/31 09:40:25;;;;;;;;;;;;;;;17.85;44.85;98000.78;10330319;28;889;-75
2023/12/31 09:45:21;;;;;;;;;;;;;;;17.84;44.84;98010.50;10329547;28;811;-74
2023/12/31 09:50:17;;;;;;;;;;;;;;;17.84;44.89;97985.91;10329793;28;1917;-74
2023/12/31 09:55:13;;;;;;;;;;;;;;;17.83;44.70;97971.88;10329284;28;873;-73
2023/12/31 10:00:08;;;;;;;;;;;;;;;17.84;44.94;97965.69;10329503;28;910;-75
2023/12/31 10:05:04;;;;;;;;;;;;;;;17.86;44.73;97965.56;10329895;28;834;-74
2023/12/31 10:10:00;;;;;;;;;;;;;;;17.86;44.85;97942.66;10328915;28;1894;-75
2023/12/31 10:14:56;;;;;;;;;;;;;;;17.88;44.75;97942.56;10328069;28;904;-74
2023/12/31 10:19:52;;;;;;;;;;;;;;;17.90;44.70;97917.78;10327176;28;711;-74
2023/12/31 10:24:48;;;;;;;;;;;;;;;17.96;44.00;97925.25;10327624;28;966;-75
2023/12/31 10:29:44;;;;;;;;;;;;;;;17.93;44.42;97922.84;10327362;28;1955;-75
2023/12/31 10:34:40;;;;;;;;;;;;;;;17.93;44.54;97883.28;10327420;28;929;-75
2023/12/31 10:39:39;;;;;;;;;;;;;;;17.94;44.70;97878.84;10328159;28;1247;-75
2023/12/31 10:44:34;;;;;;;;;;;;;;;17.92;44.76;97880.75;10326868;28;834;-79
2023/12/31 10:49:31;;;;;;;;;;;;;;;17.95;44.61;97886.66;10327392;28;1898;-75
2023/12/31 10:54:28;;;;;;;;;;;;;;;17.95;44.41;97891.09;10327333;28;860;-74
2023/12/31 10:59:24;;;;;;;;;;;;;;;17.95;44.49;97909.56;10326218;28;980;-75
2023/12/31 11:04:20;;;;;;;;;;;;;;;17.94;44.73;97913.13;10325650;28;984;-75
2023/12/31 11:09:16;;;;;;;;;;;;;;;17.96;44.59;97927.03;10325825;28;1957;-75
2023/12/31 11:14:12;;;;;;;;;;;;;;;17.94;44.61;97928.94;10325843;28;908;-74
2023/12/31 11:19:08;;;;;;;;;;;;;;;17.96;44.42;97919.13;10325716;28;867;-75
2023/12/31 11:24:04;;;;;;;;;;;;;;;18.00;44.19;97917.09;10326475;28;918;-74
2023/12/31 11:29:00;;;;;;;;;;;;;;;18.02;44.24;97902.03;10325903;28;1898;-79
2023/12/31 11:33:56;;;;;;;;;;;;;;;18.09;43.85;97896.19;10326477;28;934;-75
2023/12/31 11:38:53;;;;;;;;;;;;;;;18.13;44.28;97910.84;10325707;28;1260;-75
2023/12/31 11:43:50;;;;;;;;;;;;;;;18.21;44.14;97906.78;10324598;28;996;-75
2023/12/31 11:48:46;;;;;;;;;;;;;;;18.18;44.08;97892.00;10325647;28;1921;-75
2023/12/31 11:53:42;;;;;;;;;;;;;;;18.20;43.94;97897.19;10324986;28;815;-75
2023/12/31 11:58:38;;;;;;;;;;;;;;;18.10;44.38;97907.56;10325048;28;1029;-75
2023/12/31 12:03:34;;;;;;;;;;;;;;;18.11;44.16;97904.84;10324244;28;1016;-75
2023/12/31 12:08:30;;;;;;;;;;;;;;;18.09;44.16;97905.91;10325248;28;1901;-75
2023/12/31 12:13:25;;;;;;;;;;;;;;;18.05;44.30;97900.03;10324558;28;852;-75
2023/12/31 12:18:21;;;;;;;;;;;;;;;18.05;44.60;97907.94;10329953;28;873;-77
2023/12/31 12:23:17;;;;;;;;;;;;;;;18.09;44.25;97913.81;10331811;28;885;-75
2023/12/31 12:28:14;;;;;;;;;;;;;;;18.07;44.19;97915.72;10332084;28;1898;-76
2023/12/31 12:33:11;;;;;;;;;;;;;;;18.09;43.99;97906.72;10333117;28;814;-75
2023/12/31 12:38:08;;;;;;;;;;;;;;;18.10;43.63;97911.06;10331772;28;1239;-74
2023/12/31 12:43:04;;;;;;;;;;;;;;;18.06;44.05;97916.66;10332555;28;861;-75
2023/12/31 12:47:59;;;;;;;;;;;;;;;18.01;44.26;97892.44;10331893;28;1985;-75
2023/12/31 12:52:55;;;;;;;;;;;;;;;18.05;44.34;97892.13;10331865;28;893;-75
2023/12/31 12:57:52;;;;;;;;;;;;;;;18.06;44.45;97903.50;10331084;28;775;-75
2023/12/31 13:02:48;;;;;;;;;;;;;;;18.01;44.35;97909.09;10330820;28;1045;-75
2023/12/31 13:07:44;;;;;;;;;;;;;;;18.04;44.31;97934.38;10330592;28;1959;-75
2023/12/31 13:12:40;;;;;;;;;;;;;;;18.05;44.34;97936.94;10330486;28;905;-75
2023/12/31 13:17:36;;;;;;;;;;;;;;;18.04;44.32;97937.88;10330953;28;838;-75
2023/12/31 13:22:32;;;;;;;;;;;;;;;18.06;44.32;97932.50;10330118;28;968;-74
2023/12/31 13:27:29;;;;;;;;;;;;;;;18.06;44.35;97950.94;10329318;28;1964;-75
2023/12/31 13:32:25;;;;;;;;;;;;;;;18.04;44.32;97935.22;10329194;28;973;-75
2023/12/31 13:37:21;;;;;;;;;;;;;;;18.09;44.47;97921.72;10329650;28;1531;-75
2023/12/31 13:42:17;;;;;;;;;;;;;;;18.10;44.23;97913.72;10330222;28;867;-75
2023/12/31 13:47:12;;;;;;;;;;;;;;;18.10;44.37;97911.06;10329297;28;1971;-74
2023/12/31 13:52:10;;;;;;;;;;;;;;;18.13;44.37;97923.16;10329871;28;871;-75
2023/12/31 13:57:05;;;;;;;;;;;;;;;18.32;43.57;97922.66;10329038;28;1121;-75
2023/12/31 14:02:01;;;;;;;;;;;;;;;18.26;43.81;97933.63;10328892;28;767;-75
2023/12/31 14:06:59;;;;;;;;;;;;;;;18.34;43.79;97947.13;10329199;28;1898;-75
2023/12/31 14:11:55;;;;;;;;;;;;;;;18.30;43.99;97959.69;10328277;28;839;-75
2023/12/31 14:16:50;;;;;;;;;;;;;;;18.22;43.70;97969.13;10328614;28;864;-75
2023/12/31 14:21:46;;;;;;;;;;;;;;;18.17;44.28;98003.72;10327849;28;929;-75
2023/12/31 14:26:42;;;;;;;;;;;;;;;18.13;44.42;98016.31;10327564;28;1898;-75
2023/12/31 14:31:38;;;;;;;;;;;;;;;18.10;44.18;98034.13;10327580;28;880;-75
2023/12/31 14:36:34;;;;;;;;;;;;;;;18.15;44.17;98021.44;10328149;28;1328;-74
2023/12/31 14:41:30;;;;;;;;;;;;;;;18.14;44.11;98033.81;10327396;28;945;-75
2023/12/31 14:46:26;;;;;;;;;;;;;;;18.16;43.94;98018.72;10326949;28;1910;-76
2023/12/31 14:51:22;;;;;;;;;;;;;;;18.06;44.40;98017.69;10326297;28;932;-77
2023/12/31 14:56:18;;;;;;;;;;;;;;;18.02;44.20;98025.94;10326698;28;874;-76
2023/12/31 15:01:13;;;;;;;;;;;;;;;18.02;44.02;98034.66;10326797;28;838;-76
2023/12/31 15:06:10;;;;;;;;;;;;;;;18.05;44.21;98031.84;10326244;28;1898;-75
2023/12/31 15:11:05;;;;;;;;;;;;;;;18.08;44.47;98020.22;10326785;28;908;-75
2023/12/31 15:16:01;;;;;;;;;;;;;;;18.03;44.41;98011.81;10326676;28;1018;-75
2023/12/31 15:20:57;;;;;;;;;;;;;;;18.08;44.41;98014.97;10326647;28;885;-75
2023/12/31 15:25:53;;;;;;;;;;;;;;;18.08;44.47;98021.06;10325767;28;1906;-75
2023/12/31 15:30:49;;;;;;;;;;;;;;;18.06;44.52;98012.41;10325715;28;861;-75
2023/12/31 15:35:47;;;;;;;;;;;;;;;18.09;44.41;98008.72;10325400;28;1426;-75
2023/12/31 15:40:43;;;;;;;;;;;;;;;18.08;44.33;98014.97;10325912;28;1674;-75
2023/12/31 15:45:38;;;;;;;;;;;;;;;18.10;43.95;98027.09;10325887;28;834;-76
2023/12/31 15:50:34;;;;;;;;;;;;;;;18.15;43.67;98027.56;10326130;28;1906;-74
2023/12/31 15:55:30;;;;;;;;;;;;;;;18.12;43.50;98025.16;10339388;28;828;-74
2023/12/31 16:00:26;;;;;;;;;;;;;;;18.07;43.86;98014.09;10338746;28;917;-74
2023/12/31 16:05:22;;;;;;;;;;;;;;;18.02;43.97;98016.22;10338631;28;826;-74
2023/12/31 16:10:18;;;;;;;;;;;;;;;18.07;44.11;98022.00;10338477;28;1902;-74
2023/12/31 16:15:14;;;;;;;;;;;;;;;18.07;43.81;98014.09;10338468;28;773;-74
2023/12/31 16:20:10;;;;;;;;;;;;;;;18.10;43.93;98013.03;10338319;28;863;-74
2023/12/31 16:25:06;;;;;;;;;;;;;;;18.12;44.03;98021.69;10338290;28;802;-74
2023/12/31 16:30:01;;;;;;;;;;;;;;;18.12;43.89;98017.25;10338634;28;1943;-74
2023/12/31 16:34:57;;;;;;;;;;;;;;;18.13;44.09;98015.44;10338590;28;767;-74
2023/12/31 16:39:53;;;;;;;;;;;;;;;18.11;44.06;98020.00;10339192;28;1710;-74
2023/12/31 16:44:49;;;;;;;;;;;;;;;18.15;43.85;98018.81;10338505;28;852;-74
2023/12/31 16:49:45;;;;;;;;;;;;;;;18.12;44.11;98025.16;10337754;28;1967;-74
2023/12/31 16:54:41;;;;;;;;;;;;;;;18.14;43.96;98031.16;10338412;28;798;-74
2023/12/31 16:59:37;;;;;;;;;;;;;;;18.13;43.70;98029.50;10338238;28;865;-74
2023/12/31 17:04:33;;;;;;;;;;;;;;;18.12;43.83;98024.31;10332778;28;916;-74
2023/12/31 17:09:28;;;;;;;;;;;;;;;18.13;43.76;98026.84;10330442;28;1894;-74
2023/12/31 17:14:24;;;;;;;;;;;;;;;18.14;43.86;98022.41;10331348;28;762;-74
2023/12/31 17:19:21;;;;;;;;;;;;;;;18.15;43.72;98009.09;10331346;28;918;-74
2023/12/31 17:24:17;;;;;;;;;;;;;;;18.07;43.85;98014.09;10330337;28;905;-68
2023/12/31 17:29:13;;;;;;;;;;;;;;;18.05;43.85;98018.66;10330973;28;1885;-70
2023/12/31 17:34:09;;;;;;;;;;;;;;;18.10;43.72;98031.47;10329493;28;1016;-74
2023/12/31 17:39:05;;;;;;;;;;;;;;;18.14;43.50;98031.16;10329947;28;1314;-75
2023/12/31 17:44:01;;;;;;;;;;;;;;;18.05;43.61;98038.88;10329690;28;815;-74
2023/12/31 17:48:57;;;;;;;;;;;;;;;18.12;43.06;98045.41;10330137;28;1914;-77
2023/12/31 17:53:53;;;;;;;;;;;;;;;18.09;43.57;98038.56;10330205;28;897;-74
2023/12/31 17:58:50;;;;;;;;;;;;;;;18.15;43.58;98045.19;10329041;28;861;-74
2023/12/31 18:03:46;;;;;;;;;;;;;;;18.17;43.67;98052.03;10329714;28;798;-74
2023/12/31 18:08:45;;;;;;;;;;;;;;;18.17;43.71;98059.94;10329246;28;1936;-74
2023/12/31 18:13:41;;;;;;;;;;;;;;;18.15;43.73;98050.47;10329185;28;802;-74
2023/12/31 18:18:38;;;;;;;;;;;;;;;18.17;43.70;98062.59;10328842;28;940;-74
2023/12/31 18:23:34;;;;;;;;;;;;;;;18.17;43.65;98059.94;10327381;28;1209;-74
2023/12/31 18:28:30;;;;;;;;;;;;;;;18.16;43.58;98057.44;10328679;28;1969;-74
2023/12/31 18:33:26;;;;;;;;;;;;;;;18.17;43.70;98065.22;10327646;28;856;-74
2023/12/31 18:38:21;;;;;;;;;;;;;;;18.18;43.74;98060.78;10326971;28;1312;-74
2023/12/31 18:43:17;;;;;;;;;;;;;;;18.18;43.75;98079.25;10327838;28;866;-74
2023/12/31 18:48:13;;;;;;;;;;;;;;;18.20;43.57;98082.63;10327022;28;1887;-74
2023/12/31 18:53:09;;;;;;;;;;;;;;;18.22;43.51;98077.25;10327443;28;818;-74
2023/12/31 18:58:05;;;;;;;;;;;;;;;18.18;43.74;98074.84;10326649;28;953;-74
2023/12/31 19:03:01;;;;;;;;;;;;;;;18.24;43.61;98097.28;10326435;28;853;-74
2023/12/31 19:07:57;;;;;;;;;;;;;;;18.21;43.43;98086.97;10325944;28;1894;-74
2023/12/31 19:12:53;;;;;;;;;;;;;;;18.16;43.51;98076.72;10326859;28;802;-74
2023/12/31 19:17:49;;;;;;;;;;;;;;;18.20;43.56;98081.78;10326068;28;891;-74
2023/12/31 19:22:45;;;;;;;;;;;;;;;18.19;43.66;98094.13;10325965;28;795;-74
2023/12/31 19:27:41;;;;;;;;;;;;;;;18.18;43.58;98084.50;10325245;28;1898;-74
2023/12/31 19:32:43;;;;;;;;;;;;;;;18.23;43.12;98082.41;10326315;28;786;-74
2023/12/31 19:37:39;;;;;;;;;;;;;;;18.23;43.40;98098.22;10325637;28;1502;-74
2023/12/31 19:42:35;;;;;;;;;;;;;;;18.18;43.42;98095.06;10326114;28;898;-74
2023/12/31 19:47:31;;;;;;;;;;;;;;;18.22;43.59;98099.19;10325964;28;1917;-74
2023/12/31 19:52:28;;;;;;;;;;;;;;;18.22;43.45;98079.88;10325336;28;864;-74
2023/12/31 19:57:23;;;;;;;;;;;;;;;18.23;43.11;98097.38;10325261;28;770;-74
2023/12/31 20:02:20;;;;;;;;;;;;;;;18.22;43.36;98106.25;10324557;28;842;-74
2023/12/31 20:07:16;;;;;;;;;;;;;;;18.22;43.08;98087.78;10324904;28;1867;-74
2023/12/31 20:12:12;;;;;;;;;;;;;;;18.22;43.21;98095.72;10325014;28;845;-73
2023/12/31 20:17:07;;;;;;;;;;;;;;;18.21;43.14;98101.91;10326387;28;877;-74
2023/12/31 20:22:04;;;;;;;;;;;;;;;18.23;43.10;98114.03;10324728;28;988;-74
2023/12/31 20:27:00;;;;;;;;;;;;;;;18.22;43.56;98100.97;10325173;28;1918;-74
2023/12/31 20:31:56;;;;;;;;;;;;;;;18.19;43.51;98112.59;10325219;28;873;-74
2023/12/31 20:36:51;;;;;;;;;;;;;;;18.18;43.29;98109.13;10323632;28;1294;-74
2023/12/31 20:41:47;;;;;;;;;;;;;;;18.18;43.03;98114.38;10332182;28;924;-74
2023/12/31 20:46:43;;;;;;;;;;;;;;;18.16;42.90;98129.47;10332575;28;1945;-74
2023/12/31 20:51:39;;;;;;;;;;;;;;;18.16;42.77;98110.19;10331781;28;916;-74
2023/12/31 20:56:36;;;;;;;;;;;;;;;18.07;43.11;98103.72;10331473;28;869;-74
2023/12/31 21:01:32;;;;;;;;;;;;;;;18.06;43.29;98102.06;10332157;28;952;-74
2023/12/31 21:06:28;;;;;;;;;;;;;;;18.03;43.20;98114.63;10331035;28;1897;-74
2023/12/31 21:11:25;;;;;;;;;;;;;;;18.02;42.94;98105.84;10331029;28;849;-74
2023/12/31 21:16:21;;;;;;;;;;;;;;;18.00;43.02;98109.53;10331328;28;873;-69
2023/12/31 21:21:17;;;;;;;;;;;;;;;17.98;43.38;98119.38;10330578;28;876;-73
2023/12/31 21:26:13;;;;;;;;;;;;;;;17.94;43.36;98110.81;10330949;28;1871;-74
2023/12/31 21:31:10;;;;;;;;;;;;;;;17.93;43.59;98112.63;10330300;28;875;-74
2023/12/31 21:36:06;;;;;;;;;;;;;;;17.92;43.49;98115.34;10330476;28;1315;-74
2023/12/31 21:41:03;;;;;;;;;;;;;;;17.90;43.32;98122.53;10329878;28;1106;-74
2023/12/31 21:45:59;;;;;;;;;;;;;;;17.88;43.44;98119.16;10330637;28;1922;-74
2023/12/31 21:50:55;;;;;;;;;;;;;;;17.87;43.13;98120.13;10329398;28;830;-73
2023/12/31 21:55:51;;;;;;;;;;;;;;;17.86;43.17;98103.44;10328964;28;794;-73
2023/12/31 22:00:47;;;;;;;;;;;;;;;17.78;42.85;98131.25;10329392;28;830;-73
2023/12/31 22:05:43;;;;;;;;;;;;;;;17.77;42.98;98134.84;10328761;28;880;-74
2023/12/31 22:10:38;;;;;;;;;;;;;;;17.70;43.18;98129.16;10328908;28;1894;-74
2023/12/31 22:15:34;;;;;;;;;;;;;;;17.70;43.08;98122.09;10328128;28;779;-74
2023/12/31 22:20:30;;;;;;;;;;;;;;;17.69;43.31;98130.94;10328552;28;1698;-74
2023/12/31 22:25:26;;;;;;;;;;;;;;;17.65;43.27;98132.09;10327769;28;1114;-74
2023/12/31 22:30:22;;;;;;;;;;;;;;;17.65;42.88;98144.44;10328283;28;1962;-74
2023/12/31 22:35:18;;;;;;;;;;;;;;;17.62;43.56;98142.00;10328040;28;874;-74
2023/12/31 22:40:14;;;;;;;;;;;;;;;17.64;43.38;98143.59;10327731;28;1296;-74
2023/12/31 22:45:10;;;;;;;;;;;;;;;17.65;43.02;98140.00;10326984;28;810;-75
2023/12/31 22:50:06;;;;;;;;;;;;;;;17.64;43.07;98146.22;10326691;28;1906;-73
2023/12/31 22:55:02;;;;;;;;;;;;;;;17.65;42.74;98132.09;10327220;28;802;-74
2023/12/31 22:59:57;;;;;;;;;;;;;;;17.61;43.56;98124.53;10325393;28;995;-74
2023/12/31 23:04:53;;;;;;;;;;;;;;;17.65;43.05;98112.81;10325235;28;885;-74
2023/12/31 23:09:49;;;;;;;;;;;;;;;17.58;43.10;98127.34;10325425;28;1897;-74
2023/12/31 23:14:45;;;;;;;;;;;;;;;17.56;43.07;98129.25;10326535;28;818;-74
2023/12/31 23:19:41;;;;;;;;;;;;;;;17.61;43.02;98132.44;10326026;28;854;-74
2023/12/31 23:24:37;;;;;;;;;;;;;;;17.52;43.26;98126.81;10325688;28;944;-74
2023/12/31 23:29:33;;;;;;;;;;;;;;;17.54;43.01;98139.88;10325569;28;1961;-74
2023/12/31 23:34:28;;;;;;;;;;;;;;;17.52;42.78;98137.34;10325936;28;1159;-74
2023/12/31 23:39:24;;;;;;;;;;;;;;;17.54;42.59;98134.63;10326360;28;1386;-74
2023/12/31 23:44:20;;;;;;;;;;;;;;;17.53;42.90;98125.88;10325250;28;886;-74
2023/12/31 23:49:16;;;;;;;;;;;;;;;17.50;43.06;98127.88;10325004;28;1910;-74
2023/12/31 23:54:12;;;;;;;;;;;;;;;17.50;42.96;98141.03;10325454;28;864;-70
2023/12/31 23:59:08;;;;;;;;;;;;;;;17.51;42.75;98148.00;10325229;28;790;-76
